createdAt,value
2022-10-31T00:00:58.455Z,15.10
2022-10-31T00:01:58.387Z,11.20
2022-10-31T00:02:58.778Z,15.50
2022-10-31T00:03:58.334Z,18.70
2022-10-31T00:04:58.345Z,10.30
2022-10-31T00:05:58.306Z,9.20
2022-10-31T00:06:58.327Z,11.50
2022-10-31T00:07:58.288Z,13.10
2022-10-31T00:08:58.290Z,10.90
2022-10-31T00:09:58.268Z,15.10
2022-10-31T00:10:58.277Z,17.00
2022-10-31T00:11:58.266Z,10.50
2022-10-31T00:12:58.589Z,9.80
2022-10-31T00:13:58.218Z,14.00
2022-10-31T00:14:58.209Z,14.80
2022-10-31T00:15:58.198Z,15.40
2022-10-31T00:16:58.218Z,12.30
2022-10-31T00:17:58.508Z,15.50
2022-10-31T00:18:58.175Z,11.40
2022-10-31T00:19:58.156Z,14.90
2022-10-31T00:20:58.154Z,15.10
2022-10-31T00:21:58.165Z,20.10
2022-10-31T00:22:58.147Z,13.30
2022-10-31T00:23:58.137Z,16.50
2022-10-31T00:24:58.106Z,11.50
2022-10-31T00:25:58.096Z,16.90
2022-10-31T00:26:58.086Z,16.80
2022-10-31T00:27:58.281Z,12.10
2022-10-31T00:28:58.063Z,11.70
2022-10-31T00:29:58.051Z,17.00
2022-10-31T00:30:58.038Z,14.20
2022-10-31T00:31:58.029Z,16.80
2022-10-31T00:32:58.334Z,18.00
2022-10-31T00:33:58.008Z,14.10
2022-10-31T00:34:57.998Z,20.50
2022-10-31T00:35:57.979Z,14.50
2022-10-31T00:36:57.971Z,15.10
2022-10-31T00:37:57.959Z,18.20
2022-10-31T00:38:57.970Z,14.10
2022-10-31T00:39:57.939Z,14.70
2022-10-31T00:40:57.937Z,12.90
2022-10-31T00:41:57.919Z,21.90
2022-10-31T00:42:58.316Z,16.70
2022-10-31T00:43:57.940Z,18.00
2022-10-31T00:44:57.889Z,14.80
2022-10-31T00:45:57.869Z,17.50
2022-10-31T00:46:57.861Z,19.80
2022-10-31T00:47:58.090Z,15.50
2022-10-31T00:48:57.841Z,13.00
2022-10-31T00:49:57.850Z,15.50
2022-10-31T00:50:57.822Z,14.60
2022-10-31T00:51:57.831Z,13.50
2022-10-31T00:52:57.801Z,19.20
2022-10-31T00:53:57.789Z,17.90
2022-10-31T00:54:57.784Z,18.30
2022-10-31T00:55:57.760Z,14.10
2022-10-31T00:56:57.753Z,20.80
2022-10-31T00:57:58.058Z,13.80
2022-10-31T00:58:57.761Z,15.90
2022-10-31T00:59:57.719Z,13.30
2022-10-31T01:00:57.797Z,16.90
2022-10-31T01:01:57.834Z,17.30
2022-10-31T01:02:58.100Z,16.70
2022-10-31T01:03:57.724Z,16.80
2022-10-31T01:04:57.664Z,15.20
2022-10-31T01:05:57.653Z,10.50
2022-10-31T01:06:57.643Z,13.50
2022-10-31T01:07:57.633Z,18.40
2022-10-31T01:08:57.645Z,11.80
2022-10-31T01:09:57.614Z,16.90
2022-10-31T01:10:57.612Z,13.50
2022-10-31T01:11:57.605Z,18.00
2022-10-31T01:12:57.928Z,17.00
2022-10-31T01:13:57.577Z,14.10
2022-10-31T01:14:57.561Z,14.80
2022-10-31T01:15:57.563Z,14.70
2022-10-31T01:16:57.566Z,10.60
2022-10-31T01:17:57.828Z,19.00
2022-10-31T01:18:57.514Z,14.60
2022-10-31T01:19:57.525Z,18.20
2022-10-31T01:20:57.495Z,14.10
2022-10-31T01:21:57.504Z,14.60
2022-10-31T01:22:57.471Z,17.90
2022-10-31T01:23:57.455Z,12.50
2022-10-31T01:24:57.452Z,16.10
2022-10-31T01:25:57.435Z,13.70
2022-10-31T01:26:57.426Z,10.90
2022-10-31T01:27:57.664Z,18.50
2022-10-31T01:28:57.407Z,13.20
2022-10-31T01:29:57.393Z,16.90
2022-10-31T01:30:57.385Z,17.00
2022-10-31T01:31:57.368Z,16.00
2022-10-31T01:32:57.499Z,12.50
2022-10-31T01:33:57.392Z,17.00
2022-10-31T01:34:57.345Z,13.40
2022-10-31T01:35:57.325Z,18.40
2022-10-31T01:36:57.322Z,17.60
2022-10-31T01:37:57.306Z,17.30
2022-10-31T01:38:57.331Z,19.80
2022-10-31T01:39:57.288Z,12.30
2022-10-31T01:40:57.278Z,16.40
2022-10-31T01:41:57.260Z,18.50
2022-10-31T01:42:57.586Z,17.00
2022-10-31T01:43:57.265Z,10.40
2022-10-31T01:44:57.236Z,12.10
2022-10-31T01:45:57.220Z,12.60
2022-10-31T01:46:57.208Z,16.80
2022-10-31T01:47:57.542Z,17.20
2022-10-31T01:48:57.239Z,11.70
2022-10-31T01:49:57.176Z,12.50
2022-10-31T01:50:57.190Z,16.10
2022-10-31T01:51:57.150Z,11.80
2022-10-31T01:52:57.146Z,13.70
2022-10-31T01:53:57.130Z,15.30
2022-10-31T01:54:57.148Z,14.20
2022-10-31T01:55:57.119Z,12.70
2022-10-31T01:56:57.141Z,18.30
2022-10-31T01:57:57.302Z,20.20
2022-10-31T01:58:57.081Z,16.40
2022-10-31T01:59:57.091Z,11.40
2022-10-31T02:00:58.072Z,10.80
2022-10-31T02:01:57.136Z,19.50
2022-10-31T02:02:57.420Z,12.70
2022-10-31T02:03:57.022Z,15.70
2022-10-31T02:04:57.031Z,11.30
2022-10-31T02:05:57.037Z,12.00
2022-10-31T02:06:56.995Z,14.60
2022-10-31T02:07:56.982Z,17.20
2022-10-31T02:08:56.962Z,12.30
2022-10-31T02:09:56.960Z,10.50
2022-10-31T02:10:56.968Z,13.10
2022-10-31T02:11:56.961Z,10.60
2022-10-31T02:12:57.154Z,16.60
2022-10-31T02:13:56.918Z,12.40
2022-10-31T02:14:56.903Z,14.50
2022-10-31T02:15:56.895Z,18.00
2022-10-31T02:16:56.903Z,17.40
2022-10-31T02:17:57.115Z,9.90
2022-10-31T02:18:56.861Z,12.50
2022-10-31T02:19:56.854Z,12.00
2022-10-31T02:20:56.840Z,22.50
2022-10-31T02:21:56.855Z,15.10
2022-10-31T02:22:56.823Z,12.00
2022-10-31T02:23:56.813Z,14.90
2022-10-31T02:24:56.793Z,12.30
2022-10-31T02:25:56.785Z,14.20
2022-10-31T02:26:56.809Z,14.90
2022-10-31T02:27:56.949Z,16.50
2022-10-31T02:28:56.752Z,11.60
2022-10-31T02:29:56.744Z,13.80
2022-10-31T02:30:56.736Z,12.90
2022-10-31T02:31:56.723Z,12.10
2022-10-31T02:32:56.809Z,14.30
2022-10-31T02:33:56.703Z,13.10
2022-10-31T02:34:56.683Z,10.70
2022-10-31T02:35:56.677Z,9.80
2022-10-31T02:36:56.678Z,15.30
2022-10-31T02:37:56.684Z,14.40
2022-10-31T02:38:56.664Z,12.60
2022-10-31T02:39:56.644Z,13.00
2022-10-31T02:40:56.626Z,11.80
2022-10-31T02:41:56.617Z,12.30
2022-10-31T02:42:56.797Z,15.90
2022-10-31T02:43:56.600Z,13.00
2022-10-31T02:44:56.578Z,13.50
2022-10-31T02:45:56.578Z,18.30
2022-10-31T02:46:56.557Z,10.70
2022-10-31T02:47:56.655Z,12.70
2022-10-31T02:48:56.555Z,15.90
2022-10-31T02:49:56.527Z,13.70
2022-10-31T02:50:56.517Z,11.40
2022-10-31T02:51:56.508Z,11.90
2022-10-31T02:52:56.494Z,14.50
2022-10-31T02:53:56.525Z,8.90
2022-10-31T02:54:56.467Z,11.80
2022-10-31T02:55:56.458Z,10.10
2022-10-31T02:56:56.448Z,11.40
2022-10-31T02:57:56.602Z,15.40
2022-10-31T02:58:56.428Z,14.50
2022-10-31T02:59:56.449Z,11.60
2022-10-31T03:00:56.519Z,13.70
2022-10-31T03:01:56.502Z,15.90
2022-10-31T03:02:56.472Z,11.00
2022-10-31T03:03:56.400Z,16.00
2022-10-31T03:04:56.362Z,9.40
2022-10-31T03:05:56.359Z,11.00
2022-10-31T03:06:56.349Z,12.00
2022-10-31T03:07:56.333Z,9.90
2022-10-31T03:08:56.328Z,9.60
2022-10-31T03:09:56.341Z,14.90
2022-10-31T03:10:56.302Z,13.40
2022-10-31T03:11:56.292Z,11.00
2022-10-31T03:12:56.295Z,16.50
2022-10-31T03:13:56.284Z,12.20
2022-10-31T03:14:56.277Z,12.00
2022-10-31T03:15:56.259Z,14.30
2022-10-31T03:16:56.229Z,11.20
2022-10-31T03:17:56.338Z,13.70
2022-10-31T03:18:56.209Z,14.20
2022-10-31T03:19:56.228Z,18.30
2022-10-31T03:20:56.189Z,15.10
2022-10-31T03:21:56.189Z,10.80
2022-10-31T03:22:56.168Z,11.20
2022-10-31T03:23:56.159Z,13.30
2022-10-31T03:24:56.169Z,11.70
2022-10-31T03:25:56.149Z,14.50
2022-10-31T03:26:56.130Z,18.30
2022-10-31T03:27:56.204Z,16.40
2022-10-31T03:28:56.101Z,18.20
2022-10-31T03:29:56.120Z,15.30
2022-10-31T03:30:56.083Z,10.80
2022-10-31T03:31:56.076Z,14.90
2022-10-31T03:32:56.070Z,16.00
2022-10-31T03:33:56.050Z,14.80
2022-10-31T03:34:56.038Z,18.60
2022-10-31T03:35:56.052Z,12.80
2022-10-31T03:36:56.014Z,16.10
2022-10-31T03:37:56.003Z,15.60
2022-10-31T03:38:56.002Z,14.80
2022-10-31T03:39:55.983Z,13.40
2022-10-31T03:40:55.997Z,12.00
2022-10-31T03:41:55.964Z,10.60
2022-10-31T03:42:55.952Z,15.00
2022-10-31T03:43:55.952Z,14.70
2022-10-31T03:44:55.932Z,14.70
2022-10-31T03:45:55.942Z,10.80
2022-10-31T03:46:55.903Z,15.10
2022-10-31T03:47:55.909Z,17.40
2022-10-31T03:48:55.884Z,10.60
2022-10-31T03:49:55.884Z,13.30
2022-10-31T03:50:55.882Z,9.60
2022-10-31T03:51:55.864Z,12.10
2022-10-31T03:52:55.845Z,12.00
2022-10-31T03:53:55.833Z,12.60
2022-10-31T03:54:55.824Z,14.30
2022-10-31T03:55:55.839Z,14.70
2022-10-31T03:56:55.815Z,13.70
2022-10-31T03:57:55.790Z,12.50
2022-10-31T03:58:55.784Z,10.50
2022-10-31T03:59:55.766Z,11.00
2022-10-31T04:00:56.050Z,8.10
2022-10-31T04:01:55.847Z,16.80
2022-10-31T04:02:55.755Z,11.20
2022-10-31T04:03:55.723Z,11.50
2022-10-31T04:04:55.713Z,14.00
2022-10-31T04:05:55.724Z,19.60
2022-10-31T04:06:55.687Z,16.40
2022-10-31T04:07:55.676Z,23.00
2022-10-31T04:08:55.664Z,15.10
2022-10-31T04:09:55.654Z,12.30
2022-10-31T04:10:55.669Z,16.00
2022-10-31T04:11:55.636Z,15.80
2022-10-31T04:12:55.616Z,11.90
2022-10-31T04:13:55.615Z,14.80
2022-10-31T04:14:55.595Z,16.00
2022-10-31T04:15:55.616Z,11.90
2022-10-31T04:16:55.575Z,12.50
2022-10-31T04:17:55.566Z,14.70
2022-10-31T04:18:55.575Z,11.20
2022-10-31T04:19:55.546Z,19.00
2022-10-31T04:20:55.543Z,10.40
2022-10-31T04:21:55.547Z,10.00
2022-10-31T04:22:55.517Z,12.40
2022-10-31T04:23:55.504Z,13.40
2022-10-31T04:24:55.494Z,11.70
2022-10-31T04:25:55.506Z,12.10
2022-10-31T04:26:55.466Z,14.90
2022-10-31T04:27:55.457Z,19.20
2022-10-31T04:28:55.447Z,12.50
2022-10-31T04:29:55.435Z,14.10
2022-10-31T04:30:55.426Z,12.40
2022-10-31T04:31:55.438Z,12.50
2022-10-31T04:32:55.404Z,10.80
2022-10-31T04:33:55.397Z,10.60
2022-10-31T04:34:55.379Z,18.20
2022-10-31T04:35:56.319Z,10.00
2022-10-31T04:36:55.357Z,14.90
2022-10-31T04:37:55.368Z,15.40
2022-10-31T04:38:55.337Z,11.90
2022-10-31T04:39:55.331Z,10.40
2022-10-31T04:40:55.309Z,11.40
2022-10-31T04:41:55.327Z,13.10
2022-10-31T04:42:55.354Z,13.00
2022-10-31T04:43:55.279Z,12.10
2022-10-31T04:44:55.260Z,13.40
2022-10-31T04:45:55.268Z,13.40
2022-10-31T04:46:55.240Z,13.00
2022-10-31T04:47:55.258Z,12.60
2022-10-31T04:48:55.240Z,11.70
2022-10-31T04:49:55.225Z,13.80
2022-10-31T04:50:55.198Z,11.20
2022-10-31T04:51:55.197Z,12.60
2022-10-31T04:52:55.181Z,13.00
2022-10-31T04:53:55.167Z,12.30
2022-10-31T04:54:55.181Z,11.50
2022-10-31T04:55:55.152Z,14.60
2022-10-31T04:56:55.147Z,13.80
2022-10-31T04:57:55.247Z,11.30
2022-10-31T04:58:55.108Z,9.90
2022-10-31T04:59:55.108Z,17.90
2022-10-31T05:00:55.147Z,13.40
2022-10-31T05:01:55.251Z,12.00
2022-10-31T05:02:55.070Z,15.10
2022-10-31T05:05:05.285Z,23.50
2022-10-31T05:06:05.243Z,20.70
2022-10-31T05:07:05.254Z,12.50
2022-10-31T05:08:05.225Z,16.10
2022-10-31T05:09:05.242Z,10.30
2022-10-31T05:10:05.223Z,12.00
2022-10-31T05:11:05.200Z,11.60
2022-10-31T05:12:05.183Z,10.10
2022-10-31T05:13:05.610Z,13.50
2022-10-31T05:14:05.163Z,10.80
2022-10-31T05:15:05.197Z,11.70
2022-10-31T05:16:05.142Z,19.00
2022-10-31T05:17:05.134Z,11.00
2022-10-31T05:18:05.113Z,9.80
2022-10-31T05:19:12.893Z,10.10
2022-10-31T05:20:05.091Z,10.30
2022-10-31T05:21:05.108Z,14.30
2022-10-31T05:22:05.071Z,12.40
2022-10-31T05:23:05.067Z,11.90
2022-10-31T05:24:05.049Z,9.90
2022-10-31T05:25:05.038Z,10.40
2022-10-31T05:26:05.048Z,16.20
2022-10-31T05:27:05.020Z,11.30
2022-10-31T05:28:05.002Z,11.00
2022-10-31T05:29:04.990Z,13.30
2022-10-31T05:30:05.032Z,13.60
2022-10-31T05:31:04.969Z,14.90
2022-10-31T05:32:04.980Z,21.20
2022-10-31T05:33:04.951Z,18.50
2022-10-31T05:34:04.939Z,20.10
2022-10-31T05:35:04.929Z,17.30
2022-10-31T05:36:04.919Z,14.50
2022-10-31T05:37:04.910Z,16.40
2022-10-31T05:38:04.911Z,25.70
2022-10-31T05:39:04.890Z,13.70
2022-10-31T05:40:08.064Z,15.40
2022-10-31T05:41:04.864Z,24.10
2022-10-31T05:42:04.842Z,19.30
2022-10-31T05:43:04.864Z,16.40
2022-10-31T05:44:04.860Z,16.10
2022-10-31T05:45:04.812Z,26.90
2022-10-31T05:46:04.810Z,24.20
2022-10-31T05:47:04.789Z,25.40
2022-10-31T05:48:05.250Z,19.40
2022-10-31T05:49:04.773Z,16.50
2022-10-31T05:50:04.763Z,24.10
2022-10-31T05:51:04.742Z,16.90
2022-10-31T05:52:04.733Z,26.00
2022-10-31T05:53:04.750Z,28.60
2022-10-31T05:54:04.715Z,16.40
2022-10-31T05:55:04.721Z,24.10
2022-10-31T05:56:04.691Z,16.80
2022-10-31T05:57:04.673Z,17.80
2022-10-31T05:58:04.768Z,15.20
2022-10-31T05:59:04.659Z,12.10
2022-10-31T06:00:04.644Z,20.60
2022-10-31T06:01:04.740Z,21.60
2022-10-31T06:02:04.622Z,19.40
2022-10-31T06:03:04.665Z,20.00
2022-10-31T06:04:04.607Z,32.70
2022-10-31T06:05:04.684Z,17.80
2022-10-31T06:06:04.583Z,11.60
2022-10-31T06:07:04.593Z,15.40
2022-10-31T06:08:04.868Z,17.80
2022-10-31T06:09:04.543Z,15.80
2022-10-31T06:10:04.534Z,21.40
2022-10-31T06:11:04.552Z,11.00
2022-10-31T06:12:04.514Z,16.00
2022-10-31T06:13:04.503Z,18.30
2022-10-31T06:14:04.496Z,18.20
2022-10-31T06:15:04.473Z,14.70
2022-10-31T06:16:04.463Z,19.40
2022-10-31T06:17:04.474Z,25.90
2022-10-31T06:18:04.598Z,18.80
2022-10-31T06:19:04.435Z,16.70
2022-10-31T06:20:04.422Z,13.00
2022-10-31T06:21:04.408Z,12.70
2022-10-31T06:22:04.424Z,13.90
2022-10-31T06:23:04.874Z,11.60
2022-10-31T06:24:04.382Z,16.60
2022-10-31T06:25:04.367Z,14.20
2022-10-31T06:26:04.355Z,14.20
2022-10-31T06:27:04.347Z,14.40
2022-10-31T06:28:04.355Z,24.80
2022-10-31T06:29:04.414Z,12.00
2022-10-31T06:30:04.313Z,12.50
2022-10-31T06:31:04.295Z,13.30
2022-10-31T06:32:04.305Z,11.20
2022-10-31T06:33:04.298Z,13.70
2022-10-31T06:34:04.266Z,16.10
2022-10-31T06:35:04.255Z,11.90
2022-10-31T06:36:04.243Z,13.20
2022-10-31T06:37:04.261Z,13.70
2022-10-31T06:38:04.803Z,13.10
2022-10-31T06:39:04.205Z,11.40
2022-10-31T06:40:04.195Z,16.90
2022-10-31T06:41:04.184Z,13.10
2022-10-31T06:42:04.178Z,9.70
2022-10-31T06:43:04.177Z,16.20
2022-10-31T06:44:06.590Z,13.00
2022-10-31T06:45:04.135Z,10.80
2022-10-31T06:46:04.128Z,10.20
2022-10-31T06:47:04.116Z,11.40
2022-10-31T06:48:16.604Z,10.60
2022-10-31T06:49:05.087Z,12.30
2022-10-31T06:50:04.094Z,13.70
2022-10-31T06:51:04.070Z,12.20
2022-10-31T06:52:04.066Z,11.10
2022-10-31T06:53:04.107Z,11.90
2022-10-31T06:54:04.041Z,11.80
2022-10-31T06:55:04.030Z,16.10
2022-10-31T06:56:04.018Z,9.20
2022-10-31T06:57:04.000Z,12.10
2022-10-31T06:58:04.379Z,13.40
2022-10-31T06:59:03.978Z,9.80
2022-10-31T07:00:03.976Z,11.40
2022-10-31T07:01:04.059Z,15.30
2022-10-31T07:02:04.058Z,14.00
2022-10-31T07:03:03.937Z,12.70
2022-10-31T07:04:03.948Z,12.50
2022-10-31T07:05:03.912Z,10.60
2022-10-31T07:06:03.908Z,11.70
2022-10-31T07:07:03.888Z,15.10
2022-10-31T07:08:04.003Z,13.10
2022-10-31T07:09:03.889Z,14.70
2022-10-31T07:10:03.908Z,10.80
2022-10-31T07:11:03.840Z,11.60
2022-10-31T07:12:03.840Z,16.60
2022-10-31T07:13:03.822Z,14.00
2022-10-31T07:14:03.840Z,11.90
2022-10-31T07:15:03.809Z,15.20
2022-10-31T07:16:03.790Z,16.60
2022-10-31T07:17:03.781Z,11.40
2022-10-31T07:18:03.789Z,12.00
2022-10-31T07:19:03.761Z,9.90
2022-10-31T07:20:03.784Z,15.50
2022-10-31T07:21:03.741Z,14.00
2022-10-31T07:22:03.721Z,14.60
2022-10-31T07:23:04.118Z,13.70
2022-10-31T07:24:03.708Z,16.40
2022-10-31T07:25:03.713Z,13.00
2022-10-31T07:26:03.681Z,12.60
2022-10-31T07:27:03.673Z,14.40
2022-10-31T07:28:04.042Z,15.60
2022-10-31T07:29:03.672Z,15.00
2022-10-31T07:30:03.643Z,15.00
2022-10-31T07:31:03.655Z,13.40
2022-10-31T07:32:03.621Z,13.40
2022-10-31T07:33:03.603Z,13.10
2022-10-31T07:34:03.596Z,12.90
2022-10-31T07:35:03.583Z,11.50
2022-10-31T07:36:03.581Z,17.40
2022-10-31T07:37:03.592Z,14.60
2022-10-31T07:38:03.627Z,13.00
2022-10-31T07:39:03.538Z,9.10
2022-10-31T07:40:03.532Z,14.80
2022-10-31T07:41:03.543Z,15.30
2022-10-31T07:42:03.504Z,14.00
2022-10-31T07:43:03.492Z,9.60
2022-10-31T07:44:03.493Z,12.20
2022-10-31T07:45:03.498Z,9.70
2022-10-31T07:46:03.492Z,13.50
2022-10-31T07:47:03.453Z,14.60
2022-10-31T07:48:03.675Z,10.70
2022-10-31T07:49:03.430Z,13.40
2022-10-31T07:50:03.422Z,9.80
2022-10-31T07:51:03.404Z,11.80
2022-10-31T07:52:03.423Z,14.40
2022-10-31T07:53:03.391Z,10.30
2022-10-31T07:54:03.384Z,10.30
2022-10-31T07:55:03.379Z,13.20
2022-10-31T07:56:03.363Z,9.40
2022-10-31T07:57:03.365Z,12.30
2022-10-31T07:58:03.742Z,12.30
2022-10-31T07:59:03.343Z,11.20
2022-10-31T08:00:03.323Z,11.90
2022-10-31T08:01:03.424Z,11.60
2022-10-31T08:02:03.316Z,14.00
2022-10-31T08:03:03.498Z,17.40
2022-10-31T08:04:03.277Z,11.50
2022-10-31T08:05:03.254Z,13.30
2022-10-31T08:06:03.254Z,11.60
2022-10-31T08:07:03.265Z,12.20
2022-10-31T08:08:03.617Z,12.70
2022-10-31T08:09:03.218Z,11.80
2022-10-31T08:10:03.207Z,12.30
2022-10-31T08:11:03.195Z,13.30
2022-10-31T08:12:03.215Z,11.60
2022-10-31T08:13:03.196Z,13.70
2022-10-31T08:14:03.174Z,12.70
2022-10-31T08:15:03.160Z,12.70
2022-10-31T08:16:03.137Z,13.40
2022-10-31T08:17:03.128Z,12.70
2022-10-31T08:18:03.395Z,12.00
2022-10-31T08:19:03.131Z,15.50
2022-10-31T08:20:03.099Z,14.40
2022-10-31T08:21:03.089Z,16.80
2022-10-31T08:22:03.080Z,14.20
2022-10-31T08:23:03.064Z,14.40
2022-10-31T08:24:03.062Z,13.70
2022-10-31T08:25:03.070Z,19.50
2022-10-31T08:26:03.071Z,21.20
2022-10-31T08:27:03.019Z,16.70
2022-10-31T08:28:03.309Z,22.70
2022-10-31T08:29:03.001Z,16.90
2022-10-31T08:30:02.989Z,20.40
2022-10-31T08:31:02.999Z,21.20
2022-10-31T08:32:02.971Z,16.50
2022-10-31T08:33:02.951Z,18.80
2022-10-31T08:34:02.941Z,20.90
2022-10-31T08:35:02.929Z,20.80
2022-10-31T08:36:02.940Z,19.50
2022-10-31T08:37:02.909Z,18.40
2022-10-31T08:38:03.171Z,17.80
2022-10-31T08:39:02.881Z,21.50
2022-10-31T08:40:02.890Z,20.80
2022-10-31T08:41:02.886Z,18.70
2022-10-31T08:42:02.859Z,20.80
2022-10-31T08:43:02.853Z,17.20
2022-10-31T08:44:02.832Z,19.70
2022-10-31T08:45:02.820Z,22.30
2022-10-31T08:46:02.831Z,21.00
2022-10-31T08:47:02.804Z,19.80
2022-10-31T08:48:03.249Z,19.80
2022-10-31T08:49:02.780Z,17.70
2022-10-31T08:50:02.781Z,19.60
2022-10-31T08:51:02.781Z,23.30
2022-10-31T08:52:02.750Z,18.20
2022-10-31T08:53:05.707Z,20.60
2022-10-31T08:54:02.726Z,17.30
2022-10-31T08:55:02.713Z,20.90
2022-10-31T08:56:02.732Z,21.10
2022-10-31T08:57:02.694Z,17.40
2022-10-31T08:58:03.049Z,16.50
2022-10-31T08:59:02.663Z,18.80
2022-10-31T09:00:02.663Z,19.10
2022-10-31T09:01:02.745Z,19.10
2022-10-31T09:02:02.742Z,18.60
2022-10-31T09:03:02.640Z,20.80
2022-10-31T09:04:02.614Z,23.60
2022-10-31T09:05:02.602Z,20.70
2022-10-31T09:06:02.723Z,19.10
2022-10-31T09:07:20.123Z,20.10
2022-10-31T09:08:03.882Z,24.60
2022-10-31T09:09:02.566Z,26.00
2022-10-31T09:10:02.546Z,17.30
2022-10-31T09:11:02.534Z,19.80
2022-10-31T09:12:02.525Z,28.20
2022-10-31T09:13:02.534Z,19.70
2022-10-31T09:14:02.505Z,22.70
2022-10-31T09:15:02.498Z,22.00
2022-10-31T09:16:02.483Z,23.50
2022-10-31T09:17:02.468Z,20.00
2022-10-31T09:18:02.910Z,24.80
2022-10-31T09:19:05.157Z,18.00
2022-10-31T09:20:03.435Z,23.00
2022-10-31T09:21:02.452Z,21.20
2022-10-31T09:22:02.418Z,21.60
2022-10-31T09:23:02.404Z,17.20
2022-10-31T09:24:02.398Z,21.60
2022-10-31T09:25:02.379Z,20.60
2022-10-31T09:26:02.400Z,20.30
2022-10-31T09:27:02.378Z,23.30
2022-10-31T09:28:02.776Z,21.90
2022-10-31T09:29:02.337Z,22.10
2022-10-31T09:30:02.342Z,23.20
2022-10-31T09:31:02.337Z,25.50
2022-10-31T09:32:02.309Z,25.00
2022-10-31T09:33:02.320Z,22.30
2022-10-31T09:34:02.281Z,19.50
2022-10-31T09:35:02.316Z,23.90
2022-10-31T09:36:02.288Z,23.70
2022-10-31T09:37:02.272Z,19.90
2022-10-31T09:38:02.449Z,22.60
2022-10-31T09:39:02.249Z,21.10
2022-10-31T09:40:02.225Z,21.30
2022-10-31T09:41:02.206Z,22.90
2022-10-31T09:42:02.201Z,19.30
2022-10-31T09:43:02.181Z,23.00
2022-10-31T09:44:02.201Z,19.60
2022-10-31T09:45:02.167Z,19.40
2022-10-31T09:46:02.155Z,21.00
2022-10-31T09:47:02.142Z,21.10
2022-10-31T09:48:02.493Z,28.60
2022-10-31T09:49:02.112Z,21.40
2022-10-31T09:50:02.155Z,24.60
2022-10-31T09:51:02.095Z,22.60
2022-10-31T09:52:02.123Z,22.50
2022-10-31T09:53:02.382Z,21.70
2022-10-31T09:54:02.097Z,23.40
2022-10-31T09:55:02.052Z,18.80
2022-10-31T09:56:02.043Z,21.10
2022-10-31T09:57:02.034Z,21.80
2022-10-31T09:58:02.027Z,20.30
2022-10-31T09:59:02.036Z,23.10
2022-10-31T10:00:02.002Z,22.50
2022-10-31T10:01:02.031Z,21.20
2022-10-31T10:02:02.107Z,22.90
2022-10-31T10:03:02.243Z,24.10
2022-10-31T10:04:01.954Z,21.00
2022-10-31T10:05:01.966Z,23.10
2022-10-31T10:06:01.935Z,24.20
2022-10-31T10:07:01.925Z,30.50
2022-10-31T10:08:01.907Z,24.20
2022-10-31T10:09:01.905Z,28.70
2022-10-31T10:10:02.039Z,22.50
2022-10-31T10:11:01.879Z,24.80
2022-10-31T10:12:01.868Z,23.80
2022-10-31T10:13:03.592Z,29.30
2022-10-31T10:14:01.865Z,19.30
2022-10-31T10:15:01.858Z,21.70
2022-10-31T10:16:01.819Z,21.40
2022-10-31T10:17:01.817Z,23.70
2022-10-31T10:18:01.814Z,21.90
2022-10-31T10:19:01.818Z,22.60
2022-10-31T10:20:01.801Z,21.00
2022-10-31T10:21:01.770Z,21.10
2022-10-31T10:22:01.759Z,30.60
2022-10-31T10:23:01.965Z,20.70
2022-10-31T10:24:01.740Z,19.50
2022-10-31T10:25:01.751Z,27.60
2022-10-31T10:26:01.718Z,27.30
2022-10-31T10:27:01.715Z,21.90
2022-10-31T10:28:02.116Z,25.50
2022-10-31T10:29:01.696Z,23.80
2022-10-31T10:30:01.670Z,24.20
2022-10-31T10:31:01.690Z,24.90
2022-10-31T10:32:01.654Z,19.20
2022-10-31T10:33:01.641Z,31.10
2022-10-31T10:34:01.632Z,22.30
2022-10-31T10:35:01.624Z,24.60
2022-10-31T10:36:01.624Z,24.00
2022-10-31T10:37:01.593Z,22.10
2022-10-31T10:38:01.875Z,22.70
2022-10-31T10:39:01.582Z,19.70
2022-10-31T10:40:01.563Z,21.20
2022-10-31T10:41:01.575Z,19.80
2022-10-31T10:42:01.547Z,17.00
2022-10-31T10:43:01.533Z,18.80
2022-10-31T10:44:01.561Z,18.30
2022-10-31T10:45:01.506Z,22.40
2022-10-31T10:46:01.529Z,20.60
2022-10-31T10:47:01.513Z,20.00
2022-10-31T10:48:01.898Z,27.30
2022-10-31T10:49:01.469Z,24.80
2022-10-31T10:50:01.454Z,17.10
2022-10-31T10:51:01.446Z,18.30
2022-10-31T10:52:19.386Z,21.20
2022-10-31T10:53:02.418Z,27.30
2022-10-31T10:54:04.180Z,20.60
2022-10-31T10:55:02.405Z,19.20
2022-10-31T10:56:01.386Z,17.00
2022-10-31T10:57:01.407Z,23.70
2022-10-31T10:58:01.622Z,17.10
2022-10-31T10:59:01.357Z,17.20
2022-10-31T11:00:01.338Z,22.80
2022-10-31T11:01:01.451Z,23.70
2022-10-31T11:02:01.320Z,19.10
2022-10-31T11:03:01.793Z,16.70
2022-10-31T11:04:01.299Z,19.90
2022-10-31T11:05:01.300Z,20.70
2022-10-31T11:06:01.280Z,16.30
2022-10-31T11:07:01.270Z,17.70
2022-10-31T11:08:01.285Z,21.40
2022-10-31T11:09:01.269Z,26.10
2022-10-31T11:10:01.239Z,15.10
2022-10-31T11:11:01.222Z,18.30
2022-10-31T11:12:01.214Z,23.20
2022-10-31T11:13:01.560Z,15.70
2022-10-31T11:14:01.190Z,17.00
2022-10-31T11:15:01.182Z,17.40
2022-10-31T11:16:01.172Z,19.00
2022-10-31T11:17:01.163Z,17.00
2022-10-31T11:18:01.170Z,17.20
2022-10-31T11:19:01.143Z,21.20
2022-10-31T11:20:08.215Z,14.10
2022-10-31T11:21:01.121Z,17.40
2022-10-31T11:22:01.116Z,21.80
2022-10-31T11:23:01.096Z,15.20
2022-10-31T11:24:01.111Z,16.50
2022-10-31T11:25:01.072Z,16.20
2022-10-31T11:26:01.065Z,16.10
2022-10-31T11:27:01.053Z,15.50
2022-10-31T11:28:01.043Z,19.20
2022-10-31T11:29:01.065Z,17.60
2022-10-31T11:30:01.143Z,10.80
2022-10-31T11:31:01.007Z,14.10
2022-10-31T11:32:00.997Z,10.90
2022-10-31T11:33:01.355Z,15.40
2022-10-31T11:34:00.980Z,22.30
2022-10-31T11:35:00.988Z,12.20
2022-10-31T11:36:00.956Z,17.10
2022-10-31T11:37:00.947Z,11.80
2022-10-31T11:38:01.320Z,13.80
2022-10-31T11:39:00.918Z,13.70
2022-10-31T11:40:00.910Z,19.30
2022-10-31T11:41:00.935Z,13.40
2022-10-31T11:42:04.870Z,11.50
2022-10-31T11:43:01.878Z,13.20
2022-10-31T11:44:00.862Z,13.00
2022-10-31T11:45:00.861Z,10.80
2022-10-31T11:46:00.863Z,12.40
2022-10-31T11:47:00.831Z,13.80
2022-10-31T11:48:01.183Z,13.70
2022-10-31T11:49:00.811Z,12.90
2022-10-31T11:50:00.805Z,12.40
2022-10-31T11:51:00.810Z,11.50
2022-10-31T11:52:00.788Z,11.20
2022-10-31T11:53:00.778Z,15.60
2022-10-31T11:54:02.991Z,15.70
2022-10-31T11:55:00.761Z,13.00
2022-10-31T11:56:00.764Z,10.40
2022-10-31T11:57:00.733Z,10.10
2022-10-31T11:58:01.330Z,11.30
2022-10-31T11:59:00.712Z,12.90
2022-10-31T12:00:00.700Z,13.40
2022-10-31T12:01:00.685Z,12.70
2022-10-31T12:02:00.817Z,12.40
2022-10-31T12:03:00.910Z,16.30
2022-10-31T12:04:00.655Z,16.50
2022-10-31T12:05:00.654Z,13.10
2022-10-31T12:06:00.634Z,10.70
2022-10-31T12:07:00.698Z,13.50
2022-10-31T12:08:04.296Z,16.70
2022-10-31T12:09:00.614Z,14.10
2022-10-31T12:10:00.593Z,17.70
2022-10-31T12:11:00.587Z,13.70
2022-10-31T12:12:00.588Z,11.50
2022-10-31T12:13:01.116Z,16.80
2022-10-31T12:14:03.874Z,12.70
2022-10-31T12:15:00.541Z,16.00
2022-10-31T12:16:00.559Z,13.70
2022-10-31T12:17:00.519Z,17.80
2022-10-31T12:18:00.505Z,13.70
2022-10-31T12:19:00.489Z,16.30
2022-10-31T12:20:00.513Z,15.20
2022-10-31T12:21:00.481Z,12.60
2022-10-31T12:22:00.490Z,16.00
2022-10-31T12:23:00.674Z,15.90
2022-10-31T12:24:00.440Z,15.40
2022-10-31T12:25:00.440Z,14.10
2022-10-31T12:26:00.445Z,18.60
2022-10-31T12:27:00.439Z,16.10
2022-10-31T12:28:00.407Z,22.10
2022-10-31T12:29:00.398Z,16.80
2022-10-31T12:30:00.379Z,15.50
2022-10-31T12:31:00.371Z,13.30
2022-10-31T12:32:00.375Z,16.40
2022-10-31T12:33:00.557Z,15.50
2022-10-31T12:34:00.335Z,15.80
2022-10-31T12:35:00.326Z,15.80
2022-10-31T12:36:00.305Z,21.00
2022-10-31T12:37:00.327Z,14.90
2022-10-31T12:38:00.544Z,14.10
2022-10-31T12:39:00.275Z,15.00
2022-10-31T12:40:00.265Z,20.70
2022-10-31T12:41:00.259Z,15.00
2022-10-31T12:42:00.264Z,24.40
2022-10-31T12:43:00.576Z,15.40
2022-10-31T12:44:00.216Z,18.80
2022-10-31T12:45:00.217Z,19.30
2022-10-31T12:46:00.201Z,16.90
2022-10-31T12:47:00.226Z,16.30
2022-10-31T12:48:00.184Z,16.10
2022-10-31T12:49:00.177Z,17.80
2022-10-31T12:50:00.156Z,18.00
2022-10-31T12:51:00.149Z,20.80
2022-10-31T12:52:00.138Z,20.10
2022-10-31T12:53:00.609Z,19.50
2022-10-31T12:54:00.118Z,21.30
2022-10-31T12:55:00.139Z,14.20